createdAt,value
2023-02-15T00:00:12.240Z,32.75
2023-02-15T00:02:41.489Z,28.85
2023-02-15T00:05:11.324Z,28.73
2023-02-15T00:07:39.786Z,31.52
2023-02-15T00:10:09.501Z,31.42
2023-02-15T00:12:37.980Z,27.83
2023-02-15T00:15:06.697Z,30.88
2023-02-15T00:17:35.087Z,32.88
2023-02-15T00:20:03.499Z,31.08
2023-02-15T00:22:33.411Z,30.35
2023-02-15T00:25:01.804Z,34.05
2023-02-15T00:27:30.240Z,34.65
2023-02-15T00:29:58.640Z,36.33
2023-02-15T00:32:26.992Z,32.40
2023-02-15T00:34:55.536Z,34.42
2023-02-15T00:37:25.845Z,32.15
2023-02-15T00:39:55.634Z,32.17
2023-02-15T00:42:24.031Z,32.17
2023-02-15T00:44:54.090Z,32.13
2023-02-15T00:47:22.762Z,32.20
2023-02-15T00:49:51.256Z,32.17
2023-02-15T00:52:20.229Z,32.70
2023-02-15T00:54:48.536Z,35.70
2023-02-15T00:57:18.402Z,38.95
2023-02-15T00:59:46.791Z,30.90
2023-02-15T01:02:15.324Z,29.77
2023-02-15T01:04:43.819Z,32.15
2023-02-15T01:07:12.231Z,35.25
2023-02-15T01:09:40.573Z,33.83
2023-02-15T01:12:09.628Z,33.70
2023-02-15T01:14:39.377Z,30.42
2023-02-15T01:17:07.990Z,30.95
2023-02-15T01:19:37.432Z,32.22
2023-02-15T01:22:05.778Z,35.08
2023-02-15T01:24:37.310Z,34.75
2023-02-15T01:27:05.615Z,35.03
2023-02-15T01:29:33.985Z,34.42
2023-02-15T01:32:03.881Z,37.60
2023-02-15T01:34:32.531Z,35.63
2023-02-15T01:37:01.400Z,28.90
2023-02-15T01:39:29.778Z,45.10
2023-02-15T01:41:58.585Z,34.40
2023-02-15T01:44:50.553Z,31.77
2023-02-15T01:47:28.393Z,34.63
2023-02-15T01:50:04.114Z,31.20
2023-02-15T01:55:01.161Z,30.13
2023-02-15T01:57:32.251Z,30.85
2023-02-15T02:00:03.463Z,35.35
2023-02-15T02:02:45.212Z,32.92
2023-02-15T02:05:13.689Z,31.83
2023-02-15T02:07:45.912Z,32.15
2023-02-15T02:10:17.785Z,31.15
2023-02-15T02:12:49.404Z,33.42
2023-02-15T02:15:18.263Z,29.58
2023-02-15T02:18:02.289Z,29.90
2023-02-15T02:20:45.342Z,33.63
2023-02-15T02:23:35.108Z,31.70
2023-02-15T02:26:45.061Z,29.10
2023-02-15T02:29:49.901Z,30.38
2023-02-15T02:32:34.879Z,29.40
2023-02-15T02:35:12.336Z,26.52
2023-02-15T02:37:52.621Z,30.90
2023-02-15T02:40:27.857Z,28.13
2023-02-15T02:43:02.152Z,27.38
2023-02-15T02:45:39.798Z,23.77
2023-02-15T02:48:11.652Z,31.20
2023-02-15T02:50:43.087Z,24.88
2023-02-15T02:53:12.098Z,26.35
2023-02-15T02:55:45.407Z,27.08
2023-02-15T02:58:18.733Z,29.98
2023-02-15T03:00:52.690Z,25.33
2023-02-15T03:03:27.968Z,26.73
2023-02-15T03:06:01.654Z,24.55
2023-02-15T03:08:35.086Z,27.85
2023-02-15T03:11:05.882Z,28.50
2023-02-15T03:13:35.460Z,30.15
2023-02-15T03:16:25.194Z,23.65
2023-02-15T03:18:59.054Z,25.95
2023-02-15T03:21:36.089Z,26.00
2023-02-15T03:24:15.357Z,21.48
2023-02-15T03:29:14.766Z,22.23
2023-02-15T03:31:47.755Z,20.23
2023-02-15T03:34:18.857Z,22.80
2023-02-15T03:36:54.186Z,25.25
2023-02-15T03:39:26.932Z,22.35
2023-02-15T03:42:00.349Z,25.02
2023-02-15T03:44:31.748Z,22.05
2023-02-15T03:47:06.357Z,23.17
2023-02-15T03:49:41.160Z,25.20
2023-02-15T03:52:13.837Z,24.33
2023-02-15T03:54:46.859Z,22.02
2023-02-15T03:57:37.905Z,28.45
2023-02-15T04:00:30.997Z,22.67
2023-02-15T04:03:12.707Z,26.05
2023-02-15T04:05:41.325Z,21.23
2023-02-15T04:08:11.734Z,24.75
2023-02-15T04:10:55.963Z,24.45
2023-02-15T04:13:31.484Z,19.85
2023-02-15T04:16:05.920Z,24.17
2023-02-15T04:18:55.857Z,22.77
2023-02-15T04:21:44.139Z,24.27
2023-02-15T04:24:32.095Z,20.15
2023-02-15T04:27:01.402Z,20.42
2023-02-15T04:29:30.239Z,20.05
2023-02-15T04:31:59.991Z,25.77
2023-02-15T04:34:28.545Z,21.30
2023-02-15T04:36:56.902Z,19.75
2023-02-15T04:39:26.866Z,20.23
2023-02-15T04:41:55.299Z,24.90
2023-02-15T04:44:23.651Z,21.52
2023-02-15T04:46:52.027Z,20.10
2023-02-15T04:49:20.398Z,19.50
2023-02-15T04:51:48.772Z,19.23
2023-02-15T04:54:17.081Z,20.13
2023-02-15T04:56:46.932Z,21.98
2023-02-15T04:59:15.796Z,17.67
2023-02-15T05:01:44.270Z,19.67
2023-02-15T05:04:12.919Z,19.95
2023-02-15T05:06:41.390Z,19.55
2023-02-15T05:09:09.710Z,17.85
2023-02-15T05:11:38.132Z,16.05
2023-02-15T05:14:07.807Z,17.77
2023-02-15T05:16:36.577Z,18.00
2023-02-15T05:19:04.930Z,17.73
2023-02-15T05:21:33.695Z,18.85
2023-02-15T05:24:22.035Z,18.83
2023-02-15T05:27:07.841Z,19.15
2023-02-15T05:29:37.575Z,18.00
2023-02-15T05:32:06.296Z,18.58
2023-02-15T05:34:34.701Z,17.13
2023-02-15T05:37:03.126Z,17.00
2023-02-15T05:39:31.605Z,14.88
2023-02-15T05:42:00.943Z,14.02
2023-02-15T05:44:29.396Z,17.10
2023-02-15T05:46:59.120Z,18.90
2023-02-15T05:49:27.459Z,18.65
2023-02-15T05:51:55.848Z,17.08
2023-02-15T05:54:24.464Z,16.15
2023-02-15T05:56:52.896Z,14.13
2023-02-15T05:59:21.270Z,16.33
2023-02-15T06:01:49.701Z,15.00
2023-02-15T06:04:20.345Z,14.80
2023-02-15T06:06:48.915Z,14.27
2023-02-15T06:09:19.158Z,14.93
2023-02-15T06:11:48.132Z,15.45
2023-02-15T06:14:16.757Z,13.27
2023-02-15T06:16:46.142Z,16.83
2023-02-15T06:19:14.709Z,16.25
2023-02-15T06:21:44.779Z,16.45
2023-02-15T06:24:13.710Z,12.43
2023-02-15T06:26:45.432Z,15.23
2023-02-15T06:29:14.122Z,15.82
2023-02-15T06:31:42.753Z,14.45
2023-02-15T06:34:11.225Z,14.48
2023-02-15T06:36:39.679Z,18.90
2023-02-15T06:39:09.590Z,18.20
2023-02-15T06:41:38.302Z,14.55
2023-02-15T06:44:06.794Z,16.02
2023-02-15T06:46:35.415Z,13.80
2023-02-15T06:49:03.855Z,16.20
2023-02-15T06:51:32.250Z,15.55
2023-02-15T06:54:00.602Z,13.85
2023-02-15T06:56:30.287Z,14.75
2023-02-15T06:58:58.736Z,13.25
2023-02-15T07:01:27.231Z,13.40
2023-02-15T07:03:55.847Z,15.60
2023-02-15T07:06:24.201Z,13.95
2023-02-15T07:08:53.651Z,14.57
2023-02-15T07:11:39.483Z,12.15
2023-02-15T07:14:09.195Z,14.65
2023-02-15T07:16:37.587Z,14.60
2023-02-15T07:19:06.357Z,11.63
2023-02-15T07:21:34.814Z,13.00
2023-02-15T07:24:03.887Z,11.52
2023-02-15T07:26:34.042Z,12.10
2023-02-15T07:29:03.389Z,12.95
2023-02-15T07:31:33.313Z,12.25
2023-02-15T07:34:01.676Z,10.00
2023-02-15T07:36:29.985Z,13.52
2023-02-15T07:38:58.461Z,10.05
2023-02-15T07:41:26.848Z,12.63
2023-02-15T07:43:55.464Z,10.75
2023-02-15T07:46:23.869Z,12.88
2023-02-15T07:48:53.741Z,9.45
2023-02-15T07:51:22.187Z,9.00
2023-02-15T07:53:52.393Z,8.80
2023-02-15T07:56:20.729Z,9.35
2023-02-15T07:58:56.528Z,9.90
2023-02-15T08:01:27.287Z,6.82
2023-02-15T08:03:59.646Z,8.43
2023-02-15T08:06:29.905Z,11.05
2023-02-15T08:08:58.826Z,7.82
2023-02-15T08:11:33.652Z,6.70
2023-02-15T08:14:04.824Z,8.60
2023-02-15T08:16:36.318Z,9.43
2023-02-15T08:19:08.692Z,9.15
2023-02-15T08:21:38.810Z,11.10
2023-02-15T08:24:08.823Z,8.50
2023-02-15T08:26:41.616Z,8.88
2023-02-15T08:29:11.548Z,8.98
2023-02-15T08:31:42.096Z,10.90
2023-02-15T08:34:13.249Z,10.50
2023-02-15T08:36:42.128Z,15.15
2023-02-15T08:39:10.767Z,12.68
2023-02-15T08:41:41.648Z,13.82
2023-02-15T08:44:11.583Z,17.70
2023-02-15T08:46:42.381Z,17.60
2023-02-15T08:49:14.668Z,18.17
2023-02-15T08:51:43.594Z,15.48
2023-02-15T08:54:15.401Z,16.48
2023-02-15T08:56:45.315Z,13.90
2023-02-15T08:59:17.195Z,16.50
2023-02-15T09:01:46.343Z,15.60
2023-02-15T09:04:17.638Z,30.00
2023-02-15T09:06:49.004Z,34.35
2023-02-15T09:09:18.394Z,36.10
2023-02-15T09:11:48.784Z,41.10
2023-02-15T09:14:18.850Z,31.35
2023-02-15T09:16:49.774Z,22.00
2023-02-15T09:19:21.865Z,24.80
2023-02-15T09:21:50.493Z,23.45
2023-02-15T09:24:19.726Z,16.38
2023-02-15T09:26:49.479Z,34.85
2023-02-15T09:29:19.943Z,33.60
2023-02-15T09:31:50.686Z,22.13
2023-02-15T09:34:22.119Z,25.05
2023-02-15T09:36:51.856Z,13.45
2023-02-15T09:39:23.388Z,14.05
2023-02-15T09:42:15.018Z,15.98
2023-02-15T09:45:13.896Z,23.10
2023-02-15T09:48:03.602Z,12.82
2023-02-15T09:50:44.422Z,12.38
2023-02-15T09:53:28.653Z,13.35
2023-02-15T09:56:04.480Z,12.37
2023-02-15T09:58:46.112Z,11.82
2023-02-15T10:01:26.353Z,12.43
2023-02-15T10:04:13.419Z,13.07
2023-02-15T10:06:49.166Z,13.70
2023-02-15T10:09:51.712Z,24.27
2023-02-15T10:12:50.658Z,15.65
2023-02-15T10:15:39.800Z,24.08
2023-02-15T10:18:22.087Z,13.45
2023-02-15T10:20:58.722Z,15.02
2023-02-15T10:23:53.895Z,15.38
2023-02-15T10:26:24.672Z,12.07
2023-02-15T10:28:55.895Z,12.60
2023-02-15T10:31:29.985Z,11.07
2023-02-15T10:34:16.399Z,10.77
2023-02-15T10:37:06.593Z,10.80
2023-02-15T10:39:50.241Z,9.40
2023-02-15T10:42:27.440Z,9.98
2023-02-15T10:45:15.070Z,12.80
2023-02-15T10:47:57.112Z,15.70
2023-02-15T10:50:35.637Z,14.80
2023-02-15T10:53:24.599Z,10.75
2023-02-15T10:56:03.124Z,10.93
2023-02-15T10:58:45.754Z,7.28
2023-02-15T11:01:22.228Z,8.57
2023-02-15T11:04:06.634Z,7.22
2023-02-15T11:06:38.829Z,7.70
2023-02-15T11:09:13.706Z,6.40
2023-02-15T11:11:44.836Z,6.38
2023-02-15T11:14:21.200Z,6.32
2023-02-15T11:16:54.026Z,7.40
2023-02-15T11:19:28.483Z,8.38
2023-02-15T11:24:30.556Z,9.38
2023-02-15T11:27:05.142Z,7.85
2023-02-15T11:32:14.514Z,7.85
2023-02-15T11:34:50.230Z,7.00
2023-02-15T11:37:21.934Z,7.65
2023-02-15T11:39:55.611Z,10.07
2023-02-15T11:42:27.524Z,9.30
2023-02-15T11:45:03.962Z,8.65
2023-02-15T11:47:32.421Z,9.35
2023-02-15T11:50:01.633Z,11.90
2023-02-15T11:52:30.012Z,11.50
2023-02-15T11:54:58.438Z,13.13
2023-02-15T11:57:36.400Z,12.27
2023-02-15T12:00:12.451Z,13.02
2023-02-15T12:02:46.522Z,12.35
2023-02-15T12:05:20.000Z,13.60
2023-02-15T12:07:53.939Z,13.15
2023-02-15T12:10:26.172Z,12.32
2023-02-15T12:13:13.280Z,14.55
2023-02-15T12:15:44.785Z,12.85
2023-02-15T12:18:22.451Z,11.77
2023-02-15T12:20:51.189Z,10.80
2023-02-15T12:23:21.359Z,11.75
2023-02-15T12:25:55.079Z,11.05
2023-02-15T12:28:28.918Z,9.80
2023-02-15T12:30:59.082Z,8.80
2023-02-15T12:33:32.213Z,10.20
2023-02-15T12:36:03.870Z,9.63
2023-02-15T12:38:32.600Z,10.90
2023-02-15T12:41:03.718Z,11.48
2023-02-15T12:43:36.228Z,9.95
2023-02-15T12:46:27.683Z,9.93
2023-02-15T12:49:21.172Z,10.85
2023-02-15T12:51:52.130Z,10.50
2023-02-15T12:54:40.994Z,12.23
2023-02-15T12:57:28.983Z,10.50
2023-02-15T13:00:01.396Z,9.43
2023-02-15T13:02:37.283Z,10.93
2023-02-15T13:05:19.435Z,11.23
2023-02-15T13:07:51.772Z,10.05
2023-02-15T13:10:25.497Z,10.75
2023-02-15T13:12:55.529Z,9.95
2023-02-15T13:15:36.625Z,11.77
2023-02-15T13:18:06.940Z,11.20
2023-02-15T13:20:41.469Z,10.82
2023-02-15T13:23:22.680Z,10.63
2023-02-15T13:25:51.602Z,12.45
2023-02-15T13:28:25.988Z,14.27
2023-02-15T13:30:56.268Z,11.25
2023-02-15T13:33:31.721Z,12.95
2023-02-15T13:36:08.604Z,12.68
2023-02-15T13:38:48.962Z,15.77
2023-02-15T13:41:22.108Z,12.43
2023-02-15T13:44:01.233Z,12.05
2023-02-15T13:46:51.159Z,15.38
2023-02-15T13:49:32.700Z,15.77
2023-02-15T13:52:16.446Z,14.23
2023-02-15T13:54:53.337Z,16.70
2023-02-15T13:57:41.023Z,15.32
2023-02-15T14:00:20.087Z,17.20
2023-02-15T14:03:10.588Z,15.25
2023-02-15T14:05:57.666Z,14.60
2023-02-15T14:08:42.542Z,12.40
2023-02-15T14:11:19.250Z,15.70
2023-02-15T14:14:20.292Z,16.42
2023-02-15T14:17:06.737Z,15.90
2023-02-15T14:19:46.581Z,16.05
2023-02-15T14:22:25.052Z,15.45
2023-02-15T14:25:05.325Z,20.85
2023-02-15T14:27:48.315Z,19.13
2023-02-15T14:30:22.230Z,18.63
2023-02-15T14:32:54.952Z,20.42
2023-02-15T14:35:28.801Z,22.85
2023-02-15T14:38:03.527Z,19.98
2023-02-15T14:40:57.290Z,16.40
2023-02-15T14:43:33.865Z,18.90
2023-02-15T14:46:09.568Z,20.35
2023-02-15T14:48:44.459Z,18.92
2023-02-15T14:51:57.754Z,20.08
2023-02-15T14:54:58.798Z,17.35
2023-02-15T14:57:33.384Z,17.10
2023-02-15T15:00:20.035Z,18.20
2023-02-15T15:02:51.717Z,18.33
2023-02-15T15:05:23.166Z,18.45
2023-02-15T15:07:55.429Z,19.45
2023-02-15T15:10:41.465Z,18.92
2023-02-15T15:13:42.341Z,18.15
2023-02-15T15:16:30.285Z,16.95
2023-02-15T15:18:59.394Z,17.20
2023-02-15T15:21:56.218Z,17.88
2023-02-15T15:24:53.114Z,18.00
2023-02-15T15:28:10.249Z,16.88
2023-02-15T15:30:52.402Z,19.85
2023-02-15T15:33:52.831Z,21.58
2023-02-15T15:36:55.392Z,17.02
2023-02-15T15:40:02.347Z,19.17
2023-02-15T15:46:00.097Z,21.33
2023-02-15T15:48:33.408Z,18.65
2023-02-15T15:51:05.534Z,21.20
2023-02-15T15:53:40.934Z,16.52
2023-02-15T15:58:48.617Z,17.55
2023-02-15T16:01:17.260Z,21.88
2023-02-15T16:03:53.366Z,19.05
2023-02-15T16:06:33.205Z,20.20
2023-02-15T16:09:18.383Z,18.63
2023-02-15T16:11:51.076Z,21.80
2023-02-15T16:14:27.795Z,19.73
2023-02-15T16:16:59.381Z,19.20
2023-02-15T16:19:31.383Z,20.15
2023-02-15T16:22:02.098Z,20.58
2023-02-15T16:24:44.989Z,21.15
2023-02-15T16:27:35.347Z,20.55
2023-02-15T16:30:24.372Z,21.60
2023-02-15T16:32:55.484Z,20.83
2023-02-15T16:35:25.425Z,21.35
2023-02-15T16:37:53.819Z,22.90
2023-02-15T16:40:34.896Z,23.85
2023-02-15T16:43:08.547Z,22.92
2023-02-15T16:45:39.671Z,21.45
2023-02-15T16:48:13.904Z,21.60
2023-02-15T16:50:48.297Z,20.75
2023-02-15T16:53:21.167Z,22.60
2023-02-15T16:55:52.960Z,21.25
2023-02-15T16:58:29.345Z,21.08
2023-02-15T17:01:00.794Z,21.73
2023-02-15T17:03:29.567Z,23.00
2023-02-15T17:05:59.830Z,25.83
2023-02-15T17:08:33.322Z,25.45
2023-02-15T17:11:12.631Z,20.92
2023-02-15T17:14:15.150Z,25.13
2023-02-15T17:16:49.801Z,22.40
2023-02-15T17:19:22.850Z,24.27
2023-02-15T17:21:54.203Z,21.17
2023-02-15T17:24:33.484Z,24.30
2023-02-15T17:27:05.905Z,23.27
2023-02-15T17:29:39.286Z,22.73
2023-02-15T17:32:17.790Z,24.48
2023-02-15T17:34:50.199Z,23.23
2023-02-15T17:37:28.075Z,24.20
2023-02-15T17:39:57.373Z,19.17
2023-02-15T17:42:25.954Z,21.80
2023-02-15T17:44:55.747Z,21.67
2023-02-15T17:47:27.575Z,21.35
2023-02-15T17:49:55.981Z,21.13
2023-02-15T17:52:26.441Z,24.90
2023-02-15T17:55:12.855Z,20.67
2023-02-15T18:00:33.683Z,22.42
2023-02-15T18:03:19.667Z,22.10
2023-02-15T18:06:05.664Z,20.73
2023-02-15T18:11:35.816Z,22.60
2023-02-15T18:14:04.725Z,17.95
2023-02-15T18:16:37.413Z,18.83
2023-02-15T18:19:06.776Z,20.42
2023-02-15T18:21:35.103Z,19.83
2023-02-15T18:24:03.567Z,21.60
2023-02-15T18:26:32.002Z,20.05
2023-02-15T18:29:00.479Z,22.38
2023-02-15T18:31:29.188Z,21.90
2023-02-15T18:34:03.052Z,22.13
2023-02-15T18:36:33.592Z,24.77
2023-02-15T18:39:07.768Z,20.95
2023-02-15T18:41:37.302Z,22.60
2023-02-15T18:44:11.437Z,20.55
2023-02-15T18:46:39.822Z,24.10
2023-02-15T18:49:09.627Z,21.60
2023-02-15T18:51:40.109Z,21.98
2023-02-15T18:54:18.116Z,25.15
2023-02-15T18:56:54.632Z,28.17
2023-02-15T18:59:24.430Z,23.95
2023-02-15T19:01:53.950Z,23.23
2023-02-15T19:04:25.796Z,23.67
2023-02-15T19:06:55.558Z,24.98
2023-02-15T19:09:26.101Z,24.02
2023-02-15T19:11:56.133Z,24.65
2023-02-15T19:14:27.557Z,23.95
2023-02-15T19:16:56.377Z,25.25
2023-02-15T19:19:27.240Z,24.85
2023-02-15T19:21:56.183Z,25.75
2023-02-15T19:24:31.672Z,22.63
2023-02-15T19:27:00.174Z,25.55
2023-02-15T19:29:31.582Z,26.40
2023-02-15T19:32:00.025Z,26.20
2023-02-15T19:34:29.845Z,27.08
2023-02-15T19:36:58.511Z,26.73
2023-02-15T19:39:29.979Z,26.00
2023-02-15T19:41:58.490Z,23.80
2023-02-15T19:44:26.875Z,24.92
2023-02-15T19:46:55.586Z,23.52
2023-02-15T19:49:23.955Z,22.55
2023-02-15T19:51:54.177Z,24.70
2023-02-15T19:54:30.696Z,27.27
2023-02-15T19:57:00.151Z,27.73
2023-02-15T19:59:30.027Z,26.33
2023-02-15T20:01:58.476Z,23.73
2023-02-15T20:04:28.008Z,28.20
2023-02-15T20:07:00.130Z,25.83
2023-02-15T20:09:32.195Z,22.67
2023-02-15T20:12:00.795Z,22.70
2023-02-15T20:14:29.104Z,23.27
2023-02-15T20:16:57.458Z,25.40
2023-02-15T20:19:25.800Z,23.38
2023-02-15T20:22:00.398Z,24.90
2023-02-15T20:24:31.711Z,21.67
2023-02-15T20:27:00.489Z,26.02
2023-02-15T20:29:28.827Z,24.00
2023-02-15T20:32:01.149Z,24.00
2023-02-15T20:34:29.572Z,24.38
2023-02-15T20:36:57.892Z,23.20
2023-02-15T20:39:26.303Z,21.33
2023-02-15T20:41:56.098Z,23.13
2023-02-15T20:44:26.558Z,27.58
2023-02-15T20:46:56.707Z,26.67
2023-02-15T20:49:26.754Z,27.52
2023-02-15T20:52:36.147Z,22.13
2023-02-15T20:55:57.287Z,20.77
2023-02-15T20:59:25.810Z,26.27
2023-02-15T21:01:58.773Z,23.48
2023-02-15T21:04:32.543Z,21.73
2023-02-15T21:07:02.191Z,20.42
2023-02-15T21:09:32.390Z,23.63
2023-02-15T21:12:02.514Z,23.67
2023-02-15T21:14:32.295Z,25.33
2023-02-15T21:17:00.849Z,24.38
2023-02-15T21:19:29.684Z,23.13
2023-02-15T21:21:59.595Z,23.60
2023-02-15T21:24:30.089Z,26.95
2023-02-15T21:27:03.139Z,21.88
2023-02-15T21:29:32.963Z,25.02
2023-02-15T21:32:02.590Z,25.90
2023-02-15T21:34:31.276Z,20.77
2023-02-15T21:37:00.214Z,22.00
2023-02-15T21:39:33.544Z,20.92
2023-02-15T21:42:30.783Z,25.75
2023-02-15T21:45:32.691Z,21.60
2023-02-15T21:48:01.412Z,21.75
2023-02-15T21:50:47.443Z,21.30
2023-02-15T21:55:50.073Z,20.00
2023-02-15T21:58:21.346Z,21.95
2023-02-15T22:00:54.601Z,21.88
2023-02-15T22:03:23.764Z,23.63
2023-02-15T22:05:52.322Z,21.73
2023-02-15T22:08:20.857Z,21.95
2023-02-15T22:10:49.675Z,24.40
2023-02-15T22:13:24.007Z,22.45
2023-02-15T22:15:53.759Z,23.70
2023-02-15T22:18:26.195Z,20.83
2023-02-15T22:20:55.991Z,23.75
2023-02-15T22:23:24.912Z,23.80
2023-02-15T22:25:56.139Z,20.75
2023-02-15T22:28:29.886Z,22.80
2023-02-15T22:30:59.736Z,20.38
2023-02-15T22:33:30.248Z,18.55
2023-02-15T22:35:59.394Z,24.45
2023-02-15T22:38:28.426Z,22.25
2023-02-15T22:41:03.120Z,23.17
2023-02-15T22:43:38.517Z,20.52
2023-02-15T22:46:14.223Z,20.77
2023-02-15T22:48:43.714Z,22.33
2023-02-15T22:51:13.936Z,22.80
2023-02-15T22:53:42.473Z,21.60
2023-02-15T22:56:18.592Z,19.42
2023-02-15T22:58:48.373Z,22.15
2023-02-15T23:01:25.569Z,23.63
2023-02-15T23:03:53.901Z,23.05
2023-02-15T23:06:22.263Z,23.38
2023-02-15T23:08:50.655Z,25.63
2023-02-15T23:11:19.921Z,22.15
2023-02-15T23:13:49.639Z,25.85
2023-02-15T23:16:20.515Z,20.45
2023-02-15T23:18:49.266Z,19.65
2023-02-15T23:21:22.210Z,23.48
2023-02-15T23:23:52.336Z,23.95
2023-02-15T23:26:22.755Z,22.98
2023-02-15T23:28:52.335Z,25.52
2023-02-15T23:31:24.826Z,20.10
2023-02-15T23:33:54.159Z,21.70
2023-02-15T23:36:32.203Z,23.40
2023-02-15T23:39:23.432Z,23.35
2023-02-15T23:41:51.248Z,22.25
2023-02-15T23:44:20.256Z,20.98
2023-02-15T23:46:50.845Z,24.98
2023-02-15T23:49:20.506Z,22.65
2023-02-15T23:51:51.060Z,22.27
2023-02-15T23:54:21.798Z,23.75
2023-02-15T23:56:52.370Z,23.40
2023-02-15T23:59:23.284Z,25.65
